Time;durP1;ratioP1;P1;durP2;ratioP2;P2;SDS_P1;SDS_P2;PMS_P1;PMS_P2;Temp;Humidity;BMP_temperature;BMP_pressure;BME280_temperature;BME280_humidity;BME280_pressure;Samples;Min_cycle;Max_cycle;Signal;HPM_P1;HPM_P2
2020/12/28 00:03:13;;;;;;;;;;;;;;;;;;;;;
2020/12/28 00:06:18;;;;;;;0.90;0.60;;;7.70;99.90;;;;;;4963441;28;20538;-80
2020/12/28 00:28:11;;;;;;;0.40;0.40;;;7.50;99.90;;;;;;4944666;29;20438;-77
2020/12/28 00:30:41;;;;;;;0.47;0.47;;;7.50;99.90;;;;;;4946224;29;20507;-77
2020/12/28 00:34:16;;;;;;;0.97;0.50;;;7.40;99.90;;;;;;4942950;29;20468;-79
2020/12/28 00:37:17;;;;;;;0.70;0.60;;;7.50;99.90;;;;;;4947946;29;20460;-80
2020/12/28 00:40:04;;;;;;;0.70;0.50;;;7.40;99.90;;;;;;4940953;28;20959;-78
2020/12/28 00:42:39;;;;;;;0.50;0.50;;;7.30;99.90;;;;;;4923831;29;20615;-79
2020/12/28 00:45:26;;;;;;;0.57;0.40;;;7.40;99.90;;;;;;4941855;28;20455;-79
2020/12/28 00:53:00;;;;;;;0.50;0.50;;;7.40;99.90;;;;;;4923037;29;20998;-80
2020/12/28 00:56:56;;;;;;;0.40;0.40;;;7.30;99.90;;;;;;4859883;29;20453;-80
2020/12/28 01:03:06;;;;;;;0.60;0.60;;;7.40;99.90;;;;;;4994024;23;10002201;-79
2020/12/28 01:09:35;;;;;;;0.80;0.47;;;7.40;99.90;;;;;;4908722;29;20436;-80
2020/12/28 01:12:11;;;;;;;0.40;0.40;;;7.30;99.90;;;;;;4917655;29;21018;-79
2020/12/28 01:18:43;;;;;;;0.50;0.50;;;7.40;99.90;;;;;;4923097;28;20505;-80
2020/12/28 01:21:20;;;;;;;0.40;0.40;;;7.30;99.90;;;;;;4976374;28;20845;-79
2020/12/28 01:23:47;;;;;;;0.40;0.40;;;7.30;99.90;;;;;;4975269;28;20464;-80
2020/12/28 01:26:14;;;;;;;0.40;0.40;;;7.20;99.90;;;;;;4975007;28;20463;-79
2020/12/28 01:28:42;;;;;;;0.30;0.30;;;7.20;99.90;;;;;;4974885;28;20460;-80
2020/12/28 01:31:09;;;;;;;0.90;0.50;;;7.30;99.90;;;;;;4976441;28;20463;-78
2020/12/28 01:33:37;;;;;;;0.40;0.40;;;7.30;99.90;;;;;;4977463;28;20765;-79
2020/12/28 01:36:04;;;;;;;0.43;0.40;;;7.30;99.90;;;;;;4977866;28;20460;-78
2020/12/28 01:38:32;;;;;;;0.30;0.30;;;7.20;99.90;;;;;;4982756;28;20477;-78
2020/12/28 01:43:36;;;;;;;0.40;0.40;;;7.30;99.90;;;;;;4984708;28;20531;-78
2020/12/28 01:46:34;;;;;;;0.60;0.60;;;7.30;99.90;;;;;;4992165;28;21009;-78
2020/12/28 01:49:54;;;;;;;0.53;0.40;;;7.20;99.90;;;;;;4982612;28;20403;-79
2020/12/28 01:56:54;;;;;;;0.57;0.50;;;7.20;99.90;;;;;;4963000;28;20486;-80
2020/12/28 01:59:58;;;;;;;0.50;0.40;;;7.30;99.90;;;;;;4974358;28;20496;-78
2020/12/28 02:06:20;;;;;;;0.47;0.40;;;7.30;99.90;;;;;;4887721;29;20874;-77
2020/12/28 02:09:07;;;;;;;0.50;0.50;;;7.20;99.90;;;;;;4886933;29;20492;-79
2020/12/28 02:16:31;;;;;;;0.43;0.40;;;7.20;99.90;;;;;;4866583;29;20483;-79
2020/12/28 02:19:13;;;;;;;0.43;0.43;;;7.30;99.90;;;;;;4865878;29;21892;-80
2020/12/28 02:26:07;;;;;;;0.80;0.77;;;7.30;99.90;;;;;;4862237;29;20816;-81
2020/12/28 02:28:42;;;;;;;0.30;0.30;;;7.40;99.90;;;;;;4850567;29;21006;-79
2020/12/28 02:31:47;;;;;;;0.40;0.40;;;7.20;99.90;;;;;;4865600;29;20470;-81
2020/12/28 02:38:31;;;;;;;0.50;0.50;;;7.30;99.90;;;;;;4818315;29;20490;-82
2020/12/28 02:44:34;;;;;;;0.30;0.30;;;7.00;99.90;;;;;;5031016;23;20488;-80
2020/12/28 02:54:08;;;;;;;0.50;0.50;;;6.90;99.90;;;;;;4853766;28;20548;-80
2020/12/28 03:07:18;;;;;;;0.50;0.50;;;7.00;99.90;;;;;;5016474;28;20937;-80
2020/12/28 03:14:12;;;;;;;0.40;0.40;;;7.10;99.90;;;;;;5038206;23;20519;-81
2020/12/28 03:29:11;;;;;;;;;;;;;;;;;;;;;
2020/12/28 04:08:32;;;;;;;;;;;;;;;;;;;;;
2020/12/28 04:30:51;;;;;;;0.50;0.50;;;7.10;99.90;;;;;;1240194;23;20485;-78
2020/12/28 04:33:54;;;;;;;0.50;0.50;;;6.90;99.90;;;;;;4982976;28;20467;-80
2020/12/28 04:37:19;;;;;;;0.50;0.50;;;7.00;99.90;;;;;;4998821;28;20450;-81
2020/12/28 04:40:28;;;;;;;0.50;0.50;;;6.90;99.90;;;;;;4986160;28;20455;-81
2020/12/28 04:43:16;;;;;;;1.23;0.40;;;7.00;99.90;;;;;;4938644;29;20453;-80
2020/12/28 04:45:45;;;;;;;0.60;0.57;;;7.00;99.90;;;;;;4943710;29;20501;-79
2020/12/28 04:48:12;;;;;;;0.47;0.40;;;7.10;99.90;;;;;;4917113;29;20513;-81
2020/12/28 04:50:41;;;;;;;1.07;0.53;;;7.10;99.90;;;;;;4915274;29;20535;-78
2020/12/28 04:53:07;;;;;;;1.70;1.60;;;7.20;99.90;;;;;;4915338;29;20534;-80
2020/12/28 04:55:34;;;;;;;0.70;0.70;;;7.20;99.90;;;;;;4913876;29;20577;-79
2020/12/28 04:58:00;;;;;;;0.60;0.40;;;7.10;99.90;;;;;;4932030;29;20446;-80
2020/12/28 05:00:27;;;;;;;1.33;0.50;;;7.10;99.90;;;;;;4930270;29;20493;-80
2020/12/28 05:02:54;;;;;;;0.43;0.43;;;7.00;99.90;;;;;;4930017;29;20571;-80
2020/12/28 05:05:21;;;;;;;1.27;0.50;;;7.10;99.90;;;;;;4915275;29;20612;-77
2020/12/28 05:07:49;;;;;;;0.60;0.57;;;7.10;99.90;;;;;;4915927;29;21183;-79
2020/12/28 05:10:23;;;;;;;1.47;0.67;;;7.10;99.90;;;;;;4913068;29;20991;-79
2020/12/28 05:12:50;;;;;;;0.70;0.60;;;6.90;99.90;;;;;;4913518;29;20590;-79
2020/12/28 05:15:17;;;;;;;0.63;0.50;;;6.70;99.90;;;;;;4913651;29;20482;-79
2020/12/28 05:17:53;;;;;;;0.40;0.40;;;6.90;99.90;;;;;;4914750;29;20485;-80
2020/12/28 05:20:24;;;;;;;0.53;0.50;;;6.80;99.90;;;;;;4944704;28;20549;-79
2020/12/28 05:22:54;;;;;;;0.70;0.60;;;7.00;99.90;;;;;;4984472;28;20545;-79
2020/12/28 05:25:22;;;;;;;0.40;0.40;;;7.00;99.90;;;;;;4982580;28;20551;-81
2020/12/28 05:27:50;;;;;;;0.50;0.50;;;7.10;99.90;;;;;;4987681;28;20561;-81
2020/12/28 05:30:21;;;;;;;0.60;0.60;;;7.00;99.90;;;;;;4988976;28;20469;-81
2020/12/28 05:32:48;;;;;;;0.40;0.40;;;7.10;99.90;;;;;;4998991;28;20510;-80
2020/12/28 05:35:15;;;;;;;0.60;0.40;;;7.10;99.90;;;;;;4979762;28;20492;-81
2020/12/28 05:37:47;;;;;;;0.67;0.60;;;7.10;99.90;;;;;;4978905;28;20458;-80
2020/12/28 05:40:15;;;;;;;0.80;0.60;;;7.20;99.90;;;;;;4979007;28;21178;-80
2020/12/28 05:42:55;;;;;;;1.07;0.50;;;7.00;99.90;;;;;;4994844;28;20815;-79
2020/12/28 05:45:23;;;;;;;0.50;0.50;;;7.10;99.90;;;;;;4992010;28;20990;-79
2020/12/28 05:47:55;;;;;;;1.00;0.50;;;7.10;99.90;;;;;;4981786;28;20964;-79
2020/12/28 05:50:24;;;;;;;0.53;0.53;;;7.20;99.90;;;;;;4984309;28;20454;-79
2020/12/28 05:52:59;;;;;;;0.60;0.60;;;7.40;99.90;;;;;;4981844;28;20510;-79
2020/12/28 05:55:28;;;;;;;0.60;0.50;;;7.40;99.90;;;;;;4981860;28;20898;-77
2020/12/28 05:57:56;;;;;;;0.50;0.50;;;7.20;99.90;;;;;;4998350;28;20442;-78
2020/12/28 06:00:24;;;;;;;0.50;0.50;;;7.20;99.90;;;;;;5003959;28;20473;-78
2020/12/28 06:02:52;;;;;;;0.77;0.77;;;7.20;99.90;;;;;;5003476;28;20493;-79
2020/12/28 06:05:19;;;;;;;0.50;0.50;;;7.20;99.90;;;;;;4984041;28;20458;-81
2020/12/28 06:07:47;;;;;;;0.70;0.50;;;7.20;99.90;;;;;;4989380;28;20475;-78
2020/12/28 06:10:15;;;;;;;0.50;0.50;;;7.20;99.90;;;;;;5000405;28;20474;-78
2020/12/28 06:12:42;;;;;;;0.40;0.40;;;7.10;99.90;;;;;;4996351;28;20497;-80
2020/12/28 06:15:19;;;;;;;0.60;0.50;;;7.00;99.90;;;;;;4986667;28;20589;-80
2020/12/28 06:17:47;;;;;;;0.57;0.57;;;6.90;99.90;;;;;;4984035;28;20767;-80
2020/12/28 06:20:14;;;;;;;0.50;0.50;;;7.10;99.90;;;;;;4990727;28;20474;-78
2020/12/28 06:22:42;;;;;;;0.60;0.60;;;7.10;99.90;;;;;;5011501;28;20502;-78
2020/12/28 06:25:14;;;;;;;0.47;0.47;;;7.00;99.90;;;;;;5012439;28;20450;-78
2020/12/28 06:27:44;;;;;;;0.50;0.40;;;7.10;99.90;;;;;;4998173;28;20463;-79
2020/12/28 06:30:16;;;;;;;1.90;0.87;;;7.10;99.90;;;;;;5001086;28;20827;-80
2020/12/28 06:32:45;;;;;;;0.70;0.60;;;7.10;99.90;;;;;;4981687;28;20991;-78
2020/12/28 06:35:14;;;;;;;1.20;0.70;;;7.00;99.90;;;;;;4982172;28;20857;-80
2020/12/28 06:37:52;;;;;;;0.60;0.60;;;6.80;99.90;;;;;;4984171;28;20546;-78
2020/12/28 06:40:30;;;;;;;0.60;0.60;;;6.70;99.90;;;;;;4981924;28;20489;-80
2020/12/28 06:43:14;;;;;;;0.60;0.60;;;6.80;99.90;;;;;;4994505;28;20486;-80
2020/12/28 06:45:44;;;;;;;0.73;0.60;;;6.80;99.90;;;;;;4987905;28;20462;-81
2020/12/28 06:48:24;;;;;;;0.97;0.50;;;6.50;99.90;;;;;;4995870;28;20470;-81
2020/12/28 06:51:04;;;;;;;5.63;0.93;;;6.70;99.90;;;;;;4987657;28;20533;-78
2020/12/28 06:53:37;;;;;;;0.60;0.60;;;6.70;99.90;;;;;;5000362;28;20457;-77
2020/12/28 06:56:08;;;;;;;1.33;0.80;;;6.70;99.90;;;;;;5000526;28;20577;-82
2020/12/28 06:58:34;;;;;;;11.30;7.20;;;6.60;99.90;;;;;;4999830;28;20587;-80
2020/12/28 07:01:43;;;;;;;1.87;1.70;;;6.70;99.90;;;;;;5007992;22;20462;-80
2020/12/28 07:09:05;;;;;;;2.03;0.63;;;6.70;99.90;;;;;;4974810;28;20471;-81
2020/12/28 07:12:46;;;;;;;;;;;;;;;;;;;;;
2020/12/28 07:16:22;;;;;;;;;;;;;;;;;;;;;
2020/12/28 07:19:16;;;;;;;1.27;0.47;;;6.40;99.90;;;;;;4927631;28;20453;-81
2020/12/28 07:25:58;;;;;;;;;;;;;;;;;;;;;
2020/12/28 07:28:39;;;;;;;1.33;0.67;;;6.10;99.90;;;;;;4893141;29;20471;-81
2020/12/28 07:31:46;;;;;;;0.50;0.50;;;6.10;99.90;;;;;;4883473;29;20471;-81
2020/12/28 07:34:37;;;;;;;0.60;0.50;;;6.20;99.90;;;;;;4883910;29;20479;-81
2020/12/28 07:37:32;;;;;;;0.50;0.50;;;6.30;99.90;;;;;;4880450;29;20454;-81
2020/12/28 07:40:43;;;;;;;0.80;0.67;;;6.20;99.90;;;;;;4908127;29;20448;-80
2020/12/28 07:43:20;;;;;;;1.43;0.70;;;6.00;99.90;;;;;;4916382;29;20474;-81
2020/12/28 07:46:26;;;;;;;0.70;0.70;;;6.10;99.90;;;;;;4901384;29;20454;-80
2020/12/28 07:50:01;;;;;;;;;;;;;;;;;;;;;
2020/12/28 07:53:11;;;;;;;2.50;1.27;;;5.90;99.90;;;;;;4994477;28;20466;-80
2020/12/28 07:56:44;;;;;;;1.20;0.83;;;5.90;99.90;;;;;;4959219;28;21012;-81
2020/12/28 08:00:18;;;;;;;0.80;0.70;;;6.20;99.90;;;;;;4998396;28;20458;-80
2020/12/28 08:03:23;;;;;;;0.80;0.70;;;6.30;99.90;;;;;;4983256;28;20549;-81
2020/12/28 08:06:08;;;;;;;1.67;0.90;;;6.10;99.90;;;;;;4989292;28;20537;-81
2020/12/28 08:08:48;;;;;;;1.47;1.00;;;5.90;99.90;;;;;;5002788;28;20604;-81
2020/12/28 08:14:29;;;;;;;1.70;0.80;;;6.30;99.90;;;;;;4926081;29;20600;-81
2020/12/28 08:17:35;;;;;;;1.53;0.70;;;6.30;99.90;;;;;;4996059;28;20989;-80
2020/12/28 08:20:13;;;;;;;0.63;0.63;;;6.30;99.90;;;;;;4984149;28;20453;-81
2020/12/28 08:23:01;;;;;;;0.70;0.63;;;6.30;99.90;;;;;;5004891;28;20470;-80
2020/12/28 08:25:39;;;;;;;2.00;0.83;;;6.30;99.90;;;;;;4991927;28;20586;-79
2020/12/28 08:28:11;;;;;;;1.30;0.70;;;6.20;99.90;;;;;;5003683;28;20450;-80
2020/12/28 08:30:47;;;;;;;0.83;0.80;;;6.20;99.90;;;;;;5005349;28;20467;-81
2020/12/28 08:34:04;;;;;;;0.90;0.80;;;6.20;99.90;;;;;;4960164;28;20435;-79
2020/12/28 08:36:56;;;;;;;0.97;0.73;;;6.00;99.90;;;;;;4993236;28;20467;-80
2020/12/28 08:39:44;;;;;;;3.00;2.13;;;6.10;99.90;;;;;;4989143;28;20541;-81
2020/12/28 08:42:42;;;;;;;0.97;0.83;;;6.00;99.90;;;;;;5005005;28;20462;-79
2020/12/28 08:45:23;;;;;;;0.70;0.70;;;6.00;99.90;;;;;;4993037;28;20470;-80
2020/12/28 08:48:12;;;;;;;0.80;0.80;;;6.10;99.90;;;;;;5010718;28;20461;-80
2020/12/28 08:51:14;;;;;;;1.03;0.70;;;6.10;99.90;;;;;;5002597;28;20454;-80
2020/12/28 08:54:56;;;;;;;0.70;0.67;;;6.20;99.90;;;;;;4985547;28;20474;-79
2020/12/28 08:57:51;;;;;;;1.30;0.80;;;6.20;99.90;;;;;;4976419;28;20578;-82
2020/12/28 09:00:50;;;;;;;0.57;0.57;;;6.20;99.90;;;;;;4987976;28;20458;-82
2020/12/28 09:03:47;;;;;;;2.00;0.70;;;6.10;99.90;;;;;;4991682;28;20465;-80
2020/12/28 09:06:31;;;;;;;1.13;0.70;;;6.10;99.90;;;;;;4988995;28;20442;-81
2020/12/28 09:21:09;;;;;;;;;;;;;;;;;;;;;
2020/12/28 09:24:46;;;;;;;1.30;1.20;;;6.40;99.90;;;;;;4931670;29;20469;-79
2020/12/28 09:28:00;;;;;;;4.47;1.00;;;6.30;99.90;;;;;;4919739;29;20536;-80
2020/12/28 09:31:27;;;;;;;2.10;1.10;;;6.50;99.90;;;;;;4888558;29;20573;-82
2020/12/28 09:34:15;;;;;;;1.63;1.00;;;6.30;99.90;;;;;;4886450;29;20520;-82
2020/12/28 09:40:51;;;;;;;1.20;0.93;;;6.30;99.90;;;;;;4899977;29;20498;-78
2020/12/28 09:44:01;;;;;;;1.30;0.80;;;6.20;99.90;;;;;;4890795;29;20471;-79
2020/12/28 09:47:22;;;;;;;1.33;0.90;;;6.50;99.90;;;;;;4879865;29;20439;-78
2020/12/28 09:54:46;;;;;;;;;;;;;;;;;;;;;
2020/12/28 09:57:57;;;;;;;1.60;1.50;;;6.70;99.90;;;;;;4965548;28;20578;-79
2020/12/28 10:01:18;;;;;;;1.07;0.97;;;6.50;99.90;;;;;;4900132;29;20853;-79
2020/12/28 10:07:41;;;;;;;2.40;1.23;;;6.60;99.90;;;;;;4898130;29;20454;-81
2020/12/28 10:10:50;;;;;;;1.83;1.27;;;6.40;99.90;;;;;;4922517;29;20463;-80
2020/12/28 10:17:41;;;;;;;1.17;0.97;;;6.40;99.90;;;;;;4846822;29;20473;-80
2020/12/28 10:20:42;;;;;;;1.70;1.57;;;6.60;99.90;;;;;;4846620;29;20453;-80
2020/12/28 10:24:18;;;;;;;0.80;0.80;;;6.70;99.90;;;;;;4795467;29;20442;-79
2020/12/28 10:27:22;;;;;;;1.20;1.10;;;7.20;99.90;;;;;;4830551;29;20544;-80
2020/12/28 10:29:52;;;;;;;4.13;1.27;;;7.30;99.90;;;;;;4905604;29;20465;-79
2020/12/28 10:32:57;;;;;;;4.60;1.10;;;7.30;99.90;;;;;;4926768;29;21734;-81
2020/12/28 10:36:00;;;;;;;2.20;1.57;;;7.20;99.90;;;;;;4926659;29;20493;-79
2020/12/28 10:39:04;;;;;;;2.23;0.80;;;7.20;99.90;;;;;;4929150;28;20433;-82
2020/12/28 10:42:17;;;;;;;1.30;1.03;;;7.20;99.90;;;;;;4983485;28;20470;-76
2020/12/28 10:45:29;;;;;;;1.13;0.80;;;7.20;99.90;;;;;;4963324;28;20454;-82
2020/12/28 10:48:23;;;;;;;2.67;1.70;;;7.40;99.90;;;;;;4955720;28;20439;-79
2020/12/28 10:52:11;;;;;;;1.23;1.00;;;7.40;99.90;;;;;;4860433;29;20533;-82
2020/12/28 10:55:22;;;;;;;1.30;1.20;;;7.50;99.90;;;;;;4950779;28;20480;-80
2020/12/28 10:58:24;;;;;;;2.10;1.00;;;7.30;99.90;;;;;;4984543;28;20463;-79
2020/12/28 11:01:33;;;;;;;3.67;1.10;;;6.90;99.90;;;;;;4972231;28;20456;-80
2020/12/28 11:04:46;;;;;;;3.40;0.80;;;6.70;99.90;;;;;;4920290;28;20526;-80
2020/12/28 11:07:54;;;;;;;0.93;0.83;;;6.80;99.90;;;;;;4873977;29;20435;-79
2020/12/28 11:11:06;;;;;;;;;;;;;;;;;;;;;
2020/12/28 11:14:06;;;;;;;1.40;0.73;;;7.20;99.90;;;;;;4903916;29;20521;-79
2020/12/28 11:16:55;;;;;;;1.87;0.90;;;7.00;99.90;;;;;;4916122;29;20449;-78
2020/12/28 11:20:02;;;;;;;1.90;1.00;;;7.10;99.90;;;;;;4919709;29;20463;-79
2020/12/28 11:23:20;;;;;;;1.60;0.97;;;7.00;99.90;;;;;;4899888;29;21056;-80
2020/12/28 11:26:36;;;;;;;1.33;0.80;;;7.40;99.90;;;;;;4925931;29;20509;-80
2020/12/28 11:29:29;;;;;;;5.27;0.93;;;7.70;99.90;;;;;;4927682;29;20461;-79
2020/12/28 11:32:26;;;;;;;2.00;0.90;;;8.00;99.90;;;;;;4921428;29;20502;-77
2020/12/28 11:38:53;;;;;;;1.13;1.03;;;8.00;99.90;;;;;;4936858;29;20490;-80
2020/12/28 11:42:03;;;;;;;1.60;1.10;;;8.20;99.90;;;;;;4910423;29;20513;-77
2020/12/28 11:45:09;;;;;;;2.13;1.10;;;8.40;99.90;;;;;;4983366;28;20449;-77
2020/12/28 11:48:35;;;;;;;1.43;1.20;;;8.20;99.90;;;;;;5006093;28;20825;-77
2020/12/28 11:51:42;;;;;;;1.33;1.07;;;8.20;99.90;;;;;;4989815;28;20565;-80
2020/12/28 11:54:46;;;;;;;2.40;1.33;;;8.20;99.90;;;;;;5006520;28;20464;-78
2020/12/28 11:57:55;;;;;;;1.47;1.03;;;8.10;99.90;;;;;;5016923;28;20549;-78
2020/12/28 12:00:40;;;;;;;1.20;1.10;;;8.00;99.90;;;;;;4995040;28;20545;-79
2020/12/28 12:03:55;;;;;;;1.50;1.30;;;8.20;99.90;;;;;;5007541;28;20497;-80
2020/12/28 12:06:45;;;;;;;1.63;1.47;;;8.20;99.90;;;;;;5005890;28;20422;-78
2020/12/28 12:09:25;;;;;;;1.17;1.07;;;8.00;99.90;;;;;;5009884;28;20430;-78
2020/12/28 12:12:20;;;;;;;1.47;1.20;;;7.70;99.90;;;;;;5012633;28;20847;-78
2020/12/28 12:15:00;;;;;;;1.33;1.17;;;7.70;99.90;;;;;;4991571;28;20500;-77
2020/12/28 12:18:20;;;;;;;1.50;1.40;;;7.80;99.90;;;;;;5009984;28;20438;-79
2020/12/28 12:21:12;;;;;;;3.00;1.63;;;7.70;99.90;;;;;;5020829;28;20486;-78
2020/12/28 12:24:03;;;;;;;1.50;1.40;;;7.80;99.90;;;;;;5019236;28;20524;-78
2020/12/28 12:26:46;;;;;;;2.87;1.97;;;7.90;99.90;;;;;;4998860;28;20537;-81
2020/12/28 12:29:50;;;;;;;1.73;1.10;;;7.80;99.90;;;;;;4994151;28;20458;-81
2020/12/28 12:32:40;;;;;;;1.43;1.20;;;8.00;99.90;;;;;;4990049;28;20463;-79
2020/12/28 12:35:36;;;;;;;2.70;1.43;;;7.70;99.90;;;;;;4997574;28;20478;-80
2020/12/28 12:38:10;;;;;;;2.50;1.67;;;7.80;99.90;;;;;;4994994;28;20457;-81
2020/12/28 12:41:22;;;;;;;1.57;1.30;;;7.80;99.90;;;;;;4990651;28;20828;-79
2020/12/28 12:44:53;;;;;;;1.83;1.10;;;8.20;99.90;;;;;;4991704;28;20462;-80
2020/12/28 12:48:11;;;;;;;4.20;1.70;;;7.70;99.90;;;;;;4982188;28;20434;-80
2020/12/28 12:51:04;;;;;;;1.13;1.03;;;7.80;99.90;;;;;;4984467;28;20450;-81
2020/12/28 12:54:06;;;;;;;2.23;1.53;;;7.80;99.90;;;;;;4989040;28;20450;-80
2020/12/28 12:57:08;;;;;;;1.27;1.10;;;8.00;99.90;;;;;;4995014;28;20450;-79
2020/12/28 13:00:05;;;;;;;1.63;1.00;;;8.00;99.90;;;;;;5003605;28;20466;-80
2020/12/28 13:03:30;;;;;;;1.60;1.50;;;8.10;99.90;;;;;;4987461;28;20541;-78
2020/12/28 13:06:34;;;;;;;;;;;;;;;;;;;;;
2020/12/28 13:09:49;;;;;;;2.07;1.00;;;7.90;99.90;;;;;;4999625;28;20430;-79
2020/12/28 13:12:52;;;;;;;1.37;1.27;;;7.80;99.90;;;;;;4984577;28;20642;-79
2020/12/28 13:15:47;;;;;;;1.30;1.20;;;8.00;99.90;;;;;;5000019;28;20501;-79
2020/12/28 13:18:34;;;;;;;0.80;0.80;;;8.10;99.90;;;;;;4988344;28;20466;-79
2020/12/28 13:21:46;;;;;;;1.23;1.10;;;8.00;99.90;;;;;;4989013;28;20466;-80
2020/12/28 13:24:39;;;;;;;1.23;1.13;;;7.80;99.90;;;;;;4990743;28;20462;-79
2020/12/28 13:28:21;;;;;;;3.13;1.37;;;7.50;99.90;;;;;;4994262;28;20442;-78
2020/12/28 13:31:36;;;;;;;1.17;1.13;;;7.90;99.90;;;;;;5003300;28;20461;-78
2020/12/28 13:38:49;;;;;;;1.37;1.27;;;7.70;99.90;;;;;;4913480;29;20546;-80
2020/12/28 13:41:39;;;;;;;1.20;1.00;;;8.00;99.90;;;;;;4890436;29;20497;-81
2020/12/28 13:44:05;;;;;;;1.37;1.17;;;7.80;99.90;;;;;;4930265;29;20457;-79
2020/12/28 13:46:37;;;;;;;1.63;1.10;;;7.80;99.90;;;;;;4912908;29;20940;-80
2020/12/28 13:53:00;;;;;;;;;;;;;;;;;;;;;
2020/12/28 13:55:47;;;;;;;1.90;1.60;;;8.10;99.90;;;;;;4929356;29;20489;-79
2020/12/28 13:58:28;;;;;;;1.73;1.30;;;8.10;99.90;;;;;;4881908;29;20501;-77
2020/12/28 14:01:22;;;;;;;3.27;2.07;;;8.00;99.90;;;;;;4863632;29;20433;-79
2020/12/28 14:04:25;;;;;;;1.60;1.30;;;8.10;99.90;;;;;;4867946;29;20520;-79
2020/12/28 14:07:08;;;;;;;2.70;1.50;;;7.90;99.90;;;;;;4882154;29;20448;-79
2020/12/28 14:10:02;;;;;;;1.00;1.00;;;8.10;99.90;;;;;;4855877;29;20443;-79
2020/12/28 14:13:27;;;;;;;1.23;1.13;;;8.00;99.90;;;;;;4881916;29;20504;-79
2020/12/28 14:16:22;;;;;;;5.10;1.40;;;8.00;99.90;;;;;;4828256;29;20505;-80
2020/12/28 14:19:29;;;;;;;1.40;1.07;;;7.80;99.90;;;;;;4829223;29;20486;-80
2020/12/28 14:22:45;;;;;;;3.80;1.40;;;7.80;99.90;;;;;;4816538;29;20491;-82
2020/12/28 14:30:34;;;;;;;1.10;1.00;;;7.60;99.90;;;;;;4666593;30;20940;-78
2020/12/28 14:33:26;;;;;;;1.30;1.20;;;7.50;99.90;;;;;;4783718;29;20468;-77
2020/12/28 14:36:00;;;;;;;1.50;1.40;;;7.70;99.90;;;;;;4946958;29;20481;-80
2020/12/28 14:54:46;;;;;;;2.00;1.20;;;7.60;99.90;;;;;;4917795;29;20448;-78
2020/12/28 15:04:16;;;;;;;0.93;0.90;;;7.50;99.90;;;;;;5056856;23;20522;-81
2020/12/28 15:15:09;;;;;;;1.50;1.40;;;7.60;99.90;;;;;;4870650;29;20493;-80
2020/12/28 15:18:30;;;;;;;4.83;1.37;;;7.70;99.90;;;;;;4877110;29;20446;-79
2020/12/28 15:25:03;;;;;;;1.33;1.20;;;7.90;99.90;;;;;;4807058;29;20571;-78
2020/12/28 15:28:08;;;;;;;1.40;1.30;;;7.70;99.90;;;;;;4791846;29;20505;-79
2020/12/28 15:33:28;;;;;;;2.10;1.23;;;7.70;99.90;;;;;;4640564;28;10002249;-81
2020/12/28 15:35:54;;;;;;;1.00;1.00;;;7.60;99.90;;;;;;4987070;28;20483;-80
2020/12/28 15:38:20;;;;;;;3.60;0.80;;;7.70;99.90;;;;;;4993326;28;20459;-77
2020/12/28 15:40:46;;;;;;;3.80;2.63;;;7.50;99.90;;;;;;5003398;28;20486;-79
2020/12/28 15:43:13;;;;;;;1.27;1.13;;;7.40;99.90;;;;;;4990020;28;20550;-78
2020/12/28 15:45:40;;;;;;;1.33;1.10;;;7.60;99.90;;;;;;4972221;28;20820;-79
2020/12/28 15:48:07;;;;;;;1.43;1.10;;;7.50;99.90;;;;;;4968774;28;20458;-79
2020/12/28 15:50:34;;;;;;;1.80;1.33;;;7.30;99.90;;;;;;4970902;28;20452;-80
2020/12/28 15:53:01;;;;;;;1.93;1.20;;;7.30;99.90;;;;;;4970841;28;20493;-80
2020/12/28 15:55:33;;;;;;;2.17;1.10;;;7.60;99.90;;;;;;4971431;28;20474;-78
2020/12/28 15:57:59;;;;;;;1.13;0.87;;;7.40;99.90;;;;;;4971029;28;20460;-80
2020/12/28 16:00:26;;;;;;;3.10;2.27;;;7.10;99.90;;;;;;4969814;28;20459;-80
2020/12/28 16:02:54;;;;;;;1.13;1.00;;;7.00;99.90;;;;;;4970003;28;20471;-80
2020/12/28 16:05:21;;;;;;;1.10;1.00;;;7.00;99.90;;;;;;4969671;28;20451;-81
2020/12/28 16:07:48;;;;;;;1.67;1.30;;;7.20;99.90;;;;;;4973825;28;20502;-80
2020/12/28 16:10:14;;;;;;;1.30;1.20;;;7.40;99.90;;;;;;4970477;28;20459;-79
2020/12/28 16:12:42;;;;;;;1.50;1.20;;;7.50;99.90;;;;;;4970936;28;20475;-82
2020/12/28 16:15:12;;;;;;;1.43;1.07;;;7.60;99.90;;;;;;4974593;28;20493;-79
2020/12/28 16:17:40;;;;;;;1.73;1.40;;;7.50;99.90;;;;;;4972919;28;20534;-81
2020/12/28 16:20:07;;;;;;;1.37;1.10;;;7.40;99.90;;;;;;4972991;28;20543;-78
2020/12/28 16:22:34;;;;;;;1.60;1.40;;;7.40;99.90;;;;;;4974361;28;20519;-79
2020/12/28 16:25:01;;;;;;;1.80;1.60;;;7.40;99.90;;;;;;4971679;28;20514;-78
2020/12/28 16:27:29;;;;;;;1.60;1.50;;;7.50;99.90;;;;;;4987027;28;20479;-79
2020/12/28 16:29:56;;;;;;;1.50;1.40;;;7.60;99.90;;;;;;4971529;28;20452;-78
2020/12/28 16:32:23;;;;;;;1.53;1.43;;;7.50;99.90;;;;;;4986475;28;20498;-79
2020/12/28 16:34:51;;;;;;;3.93;2.27;;;7.50;99.90;;;;;;4973888;28;20451;-80
2020/12/28 16:37:18;;;;;;;2.90;2.00;;;7.60;99.90;;;;;;4971410;28;20456;-80
2020/12/28 16:39:46;;;;;;;1.60;1.40;;;7.60;99.90;;;;;;4974373;28;20522;-78
2020/12/28 16:42:14;;;;;;;2.83;1.70;;;7.60;99.90;;;;;;4989777;28;20471;-79
2020/12/28 16:44:41;;;;;;;2.63;1.57;;;7.60;99.90;;;;;;4998522;28;20451;-78
2020/12/28 16:47:08;;;;;;;1.87;1.60;;;7.70;99.90;;;;;;4974449;28;20581;-79
2020/12/28 16:49:36;;;;;;;1.03;0.87;;;7.80;99.90;;;;;;4976550;28;20462;-80
2020/12/28 17:22:01;;;;;;;0.87;0.87;;;7.50;99.90;;;;;;5048357;28;20557;-79
2020/12/28 17:24:50;;;;;;;1.43;1.20;;;7.40;99.90;;;;;;5028255;28;22199;-79
2020/12/28 17:30:29;;;;;;;1.20;1.10;;;7.40;99.90;;;;;;5048866;28;20458;-79
2020/12/28 17:33:12;;;;;;;2.00;1.00;;;7.40;99.90;;;;;;4950053;28;20505;-79
2020/12/28 17:39:15;;;;;;;0.90;0.90;;;7.40;99.90;;;;;;4953308;28;20632;-79
2020/12/28 17:41:42;;;;;;;0.80;0.80;;;7.50;99.90;;;;;;4937959;28;20472;-79
2020/12/28 17:44:11;;;;;;;1.80;1.43;;;7.40;99.90;;;;;;4953955;28;20456;-80
2020/12/28 17:46:47;;;;;;;0.70;0.70;;;7.40;99.90;;;;;;4942515;28;20495;-79
2020/12/28 17:49:25;;;;;;;2.13;1.30;;;7.40;99.90;;;;;;4954491;28;21144;-79
2020/12/28 17:52:08;;;;;;;1.57;1.13;;;7.30;99.90;;;;;;5032400;28;20478;-80
2020/12/28 17:55:23;;;;;;;1.23;1.13;;;7.40;99.90;;;;;;5060316;28;20441;-78
2020/12/28 17:58:11;;;;;;;1.60;1.00;;;7.40;99.90;;;;;;5052484;28;20467;-78
2020/12/28 18:01:14;;;;;;;1.93;1.50;;;7.50;99.90;;;;;;5046312;28;20513;-79
2020/12/28 18:03:59;;;;;;;2.03;1.37;;;7.40;99.90;;;;;;5023684;28;20451;-78
2020/12/28 18:06:33;;;;;;;2.60;1.20;;;7.50;99.90;;;;;;5052540;28;20468;-81
2020/12/28 18:09:06;;;;;;;1.50;1.40;;;7.60;99.90;;;;;;5057577;28;20541;-78
2020/12/28 18:11:47;;;;;;;1.03;1.00;;;7.60;99.90;;;;;;5044298;28;20519;-79
2020/12/28 18:14:21;;;;;;;1.10;0.97;;;7.50;99.90;;;;;;5051771;28;20496;-79
2020/12/28 18:17:10;;;;;;;1.77;1.40;;;7.40;99.90;;;;;;5045450;28;20472;-78
2020/12/28 18:19:42;;;;;;;1.70;1.30;;;7.50;99.90;;;;;;5058496;28;20525;-80
2020/12/28 18:22:28;;;;;;;1.73;1.30;;;7.50;99.90;;;;;;5027335;28;20532;-80
2020/12/28 18:25:16;;;;;;;1.03;1.00;;;7.50;99.90;;;;;;5038558;28;21163;-78
2020/12/28 18:28:16;;;;;;;3.87;2.70;;;7.60;99.90;;;;;;5055966;28;20495;-81
2020/12/28 18:31:07;;;;;;;1.47;1.00;;;7.30;99.90;;;;;;5039856;28;20452;-80
2020/12/28 18:34:26;;;;;;;0.80;0.80;;;7.40;99.90;;;;;;4980776;28;20443;-78
2020/12/28 18:37:21;;;;;;;1.37;1.10;;;7.40;99.90;;;;;;4966145;28;20492;-79
2020/12/28 18:40:10;;;;;;;1.47;1.20;;;7.40;99.90;;;;;;4957619;28;20460;-82
2020/12/28 18:42:42;;;;;;;1.80;1.37;;;7.60;99.90;;;;;;4971465;28;20603;-79
2020/12/28 18:45:17;;;;;;;1.73;1.47;;;7.60;99.90;;;;;;4980527;28;20686;-81
2020/12/28 18:48:00;;;;;;;1.93;1.30;;;7.60;99.90;;;;;;4974294;28;20825;-79
2020/12/28 18:50:37;;;;;;;1.17;1.07;;;7.50;99.90;;;;;;4976280;28;20459;-78
2020/12/28 18:53:20;;;;;;;1.30;1.20;;;7.40;99.90;;;;;;4964919;28;20656;-80
2020/12/28 18:55:54;;;;;;;1.60;1.10;;;7.60;99.90;;;;;;4976793;28;20890;-78
2020/12/28 18:58:49;;;;;;;1.60;1.50;;;7.50;99.90;;;;;;4979401;28;20530;-79
2020/12/28 19:01:49;;;;;;;1.23;1.03;;;7.50;99.90;;;;;;4969596;28;20532;-82
2020/12/28 19:04:33;;;;;;;1.77;1.40;;;7.50;99.90;;;;;;4986985;28;20776;-81
2020/12/28 19:07:26;;;;;;;3.10;1.60;;;7.40;99.90;;;;;;5032937;28;20544;-80
2020/12/28 19:09:56;;;;;;;1.80;1.10;;;7.40;99.90;;;;;;4996222;28;20471;-80
2020/12/28 19:12:40;;;;;;;1.67;1.57;;;7.40;99.90;;;;;;4999514;28;20467;-82
2020/12/28 19:15:46;;;;;;;1.20;1.10;;;7.30;99.90;;;;;;5036946;28;20545;-82
2020/12/28 19:18:38;;;;;;;1.60;1.50;;;7.30;99.90;;;;;;5042981;28;21945;-81
2020/12/28 19:21:28;;;;;;;1.90;1.67;;;7.20;99.90;;;;;;5030659;28;20523;-81
2020/12/28 19:24:36;;;;;;;2.00;1.33;;;7.20;99.90;;;;;;5051529;28;20524;-78
2020/12/28 19:27:17;;;;;;;2.00;1.20;;;7.10;99.90;;;;;;5033842;28;20841;-80
2020/12/28 19:29:59;;;;;;;1.27;0.90;;;7.20;99.90;;;;;;5037385;28;20527;-79
2020/12/28 19:32:36;;;;;;;1.53;1.27;;;7.20;99.90;;;;;;5054367;28;20477;-80
2020/12/28 19:35:30;;;;;;;2.10;1.13;;;7.20;99.90;;;;;;5041474;28;20532;-81
2020/12/28 19:42:04;;;;;;;3.50;2.33;;;7.20;99.90;;;;;;5052659;28;20508;-79
2020/12/28 19:44:53;;;;;;;2.70;2.40;;;7.10;99.90;;;;;;5028588;28;21660;-80
2020/12/28 19:47:53;;;;;;;3.53;2.40;;;6.90;99.90;;;;;;4984827;28;20529;-79